sensor_id;sensor_type;location;lat;lon;timestamp;P1;durP1;ratioP1;P2;durP2;ratioP2
59830;SDS011;45711;50.108;13.712;2022-09-13T00:02:15;16.73;;;8.70;;
59830;SDS011;45711;50.108;13.712;2022-09-13T00:04:40;17.40;;;8.55;;
59830;SDS011;45711;50.108;13.712;2022-09-13T00:07:06;16.38;;;8.57;;
59830;SDS011;45711;50.108;13.712;2022-09-13T00:09:31;17.65;;;8.93;;
59830;SDS011;45711;50.108;13.712;2022-09-13T00:11:57;13.82;;;8.45;;
59830;SDS011;45711;50.108;13.712;2022-09-13T00:14:24;15.82;;;8.60;;
59830;SDS011;45711;50.108;13.712;2022-09-13T00:16:50;18.52;;;8.15;;
59830;SDS011;45711;50.108;13.712;2022-09-13T00:19:16;19.80;;;8.05;;
59830;SDS011;45711;50.108;13.712;2022-09-13T00:21:42;15.27;;;7.65;;
59830;SDS011;45711;50.108;13.712;2022-09-13T00:24:07;12.57;;;7.32;;
59830;SDS011;45711;50.108;13.712;2022-09-13T00:26:33;11.45;;;7.22;;
59830;SDS011;45711;50.108;13.712;2022-09-13T00:28:58;11.27;;;7.25;;
59830;SDS011;45711;50.108;13.712;2022-09-13T00:31:26;13.32;;;7.60;;
59830;SDS011;45711;50.108;13.712;2022-09-13T00:33:52;12.45;;;7.13;;
59830;SDS011;45711;50.108;13.712;2022-09-13T00:36:18;13.88;;;7.45;;
59830;SDS011;45711;50.108;13.712;2022-09-13T00:38:44;10.25;;;6.60;;
59830;SDS011;45711;50.108;13.712;2022-09-13T00:41:11;13.85;;;6.80;;
59830;SDS011;45711;50.108;13.712;2022-09-13T00:43:48;11.50;;;6.38;;
59830;SDS011;45711;50.108;13.712;2022-09-13T00:46:17;12.82;;;7.22;;
59830;SDS011;45711;50.108;13.712;2022-09-13T00:48:49;9.93;;;5.55;;
59830;SDS011;45711;50.108;13.712;2022-09-13T00:51:17;9.00;;;6.20;;
59830;SDS011;45711;50.108;13.712;2022-09-13T00:53:43;8.77;;;5.97;;
59830;SDS011;45711;50.108;13.712;2022-09-13T00:56:14;7.70;;;5.57;;
59830;SDS011;45711;50.108;13.712;2022-09-13T00:58:45;10.63;;;6.05;;
59830;SDS011;45711;50.108;13.712;2022-09-13T01:01:15;14.38;;;7.55;;
59830;SDS011;45711;50.108;13.712;2022-09-13T01:03:43;12.90;;;6.85;;
59830;SDS011;45711;50.108;13.712;2022-09-13T01:06:13;12.90;;;6.47;;
59830;SDS011;45711;50.108;13.712;2022-09-13T01:08:46;11.52;;;5.85;;
59830;SDS011;45711;50.108;13.712;2022-09-13T01:11:16;9.00;;;6.03;;
59830;SDS011;45711;50.108;13.712;2022-09-13T01:13:49;10.45;;;6.82;;
59830;SDS011;45711;50.108;13.712;2022-09-13T01:16:16;9.60;;;6.53;;
59830;SDS011;45711;50.108;13.712;2022-09-13T01:18:42;14.48;;;6.15;;
59830;SDS011;45711;50.108;13.712;2022-09-13T01:21:23;8.60;;;5.88;;
59830;SDS011;45711;50.108;13.712;2022-09-13T01:24:22;10.60;;;5.93;;
59830;SDS011;45711;50.108;13.712;2022-09-13T01:27:19;11.43;;;6.22;;
59830;SDS011;45711;50.108;13.712;2022-09-13T01:30:02;9.18;;;6.43;;
59830;SDS011;45711;50.108;13.712;2022-09-13T01:32:32;8.98;;;5.88;;
59830;SDS011;45711;50.108;13.712;2022-09-13T01:35:08;8.95;;;5.88;;
59830;SDS011;45711;50.108;13.712;2022-09-13T01:37:43;10.07;;;6.00;;
59830;SDS011;45711;50.108;13.712;2022-09-13T01:40:20;9.68;;;6.25;;
59830;SDS011;45711;50.108;13.712;2022-09-13T01:43:01;11.20;;;6.10;;
59830;SDS011;45711;50.108;13.712;2022-09-13T01:45:39;9.15;;;5.97;;
59830;SDS011;45711;50.108;13.712;2022-09-13T01:48:14;14.32;;;6.18;;
59830;SDS011;45711;50.108;13.712;2022-09-13T01:50:45;8.10;;;5.70;;
59830;SDS011;45711;50.108;13.712;2022-09-13T01:53:17;8.90;;;5.95;;
59830;SDS011;45711;50.108;13.712;2022-09-13T01:55:49;11.73;;;6.20;;
59830;SDS011;45711;50.108;13.712;2022-09-13T01:58:21;11.73;;;5.32;;
59830;SDS011;45711;50.108;13.712;2022-09-13T02:00:54;9.93;;;6.07;;
59830;SDS011;45711;50.108;13.712;2022-09-13T02:03:28;11.40;;;6.07;;
59830;SDS011;45711;50.108;13.712;2022-09-13T02:05:59;11.95;;;5.88;;
59830;SDS011;45711;50.108;13.712;2022-09-13T02:08:30;9.85;;;5.47;;
59830;SDS011;45711;50.108;13.712;2022-09-13T02:11:03;9.00;;;5.80;;
59830;SDS011;45711;50.108;13.712;2022-09-13T02:13:34;11.30;;;6.53;;
59830;SDS011;45711;50.108;13.712;2022-09-13T02:16:06;8.05;;;5.93;;
59830;SDS011;45711;50.108;13.712;2022-09-13T02:18:36;8.80;;;5.90;;
59830;SDS011;45711;50.108;13.712;2022-09-13T02:21:05;10.85;;;6.18;;
59830;SDS011;45711;50.108;13.712;2022-09-13T02:23:35;8.88;;;5.47;;
59830;SDS011;45711;50.108;13.712;2022-09-13T02:26:06;12.68;;;7.05;;
59830;SDS011;45711;50.108;13.712;2022-09-13T02:28:35;14.15;;;6.38;;
59830;SDS011;45711;50.108;13.712;2022-09-13T02:31:07;9.30;;;5.97;;
59830;SDS011;45711;50.108;13.712;2022-09-13T02:33:34;11.23;;;5.93;;
59830;SDS011;45711;50.108;13.712;2022-09-13T02:36:03;9.48;;;5.68;;
59830;SDS011;45711;50.108;13.712;2022-09-13T02:38:33;11.63;;;5.72;;
59830;SDS011;45711;50.108;13.712;2022-09-13T02:41:04;10.02;;;5.88;;
59830;SDS011;45711;50.108;13.712;2022-09-13T02:43:35;8.48;;;5.60;;
59830;SDS011;45711;50.108;13.712;2022-09-13T02:46:12;8.98;;;6.18;;
59830;SDS011;45711;50.108;13.712;2022-09-13T02:48:48;9.65;;;5.50;;
59830;SDS011;45711;50.108;13.712;2022-09-13T02:51:22;9.73;;;6.07;;
59830;SDS011;45711;50.108;13.712;2022-09-13T02:53:54;12.60;;;6.15;;
59830;SDS011;45711;50.108;13.712;2022-09-13T02:56:33;7.25;;;5.40;;
59830;SDS011;45711;50.108;13.712;2022-09-13T02:59:08;8.50;;;5.90;;
59830;SDS011;45711;50.108;13.712;2022-09-13T03:01:43;9.82;;;5.72;;
59830;SDS011;45711;50.108;13.712;2022-09-13T03:04:13;7.95;;;5.28;;
59830;SDS011;45711;50.108;13.712;2022-09-13T03:06:39;12.88;;;5.10;;
59830;SDS011;45711;50.108;13.712;2022-09-13T03:09:06;8.52;;;5.60;;
59830;SDS011;45711;50.108;13.712;2022-09-13T03:11:35;10.88;;;5.80;;
59830;SDS011;45711;50.108;13.712;2022-09-13T03:14:20;12.75;;;5.55;;
59830;SDS011;45711;50.108;13.712;2022-09-13T03:17:04;7.55;;;5.50;;
59830;SDS011;45711;50.108;13.712;2022-09-13T03:19:39;7.93;;;5.57;;
59830;SDS011;45711;50.108;13.712;2022-09-13T03:22:26;8.32;;;5.57;;
59830;SDS011;45711;50.108;13.712;2022-09-13T03:25:05;8.07;;;5.70;;
59830;SDS011;45711;50.108;13.712;2022-09-13T03:27:36;9.63;;;5.90;;
59830;SDS011;45711;50.108;13.712;2022-09-13T03:30:08;7.80;;;5.90;;
59830;SDS011;45711;50.108;13.712;2022-09-13T03:32:40;7.85;;;5.70;;
59830;SDS011;45711;50.108;13.712;2022-09-13T03:35:15;8.25;;;5.55;;
59830;SDS011;45711;50.108;13.712;2022-09-13T03:37:49;10.27;;;5.20;;
59830;SDS011;45711;50.108;13.712;2022-09-13T03:40:20;9.60;;;5.10;;
59830;SDS011;45711;50.108;13.712;2022-09-13T03:42:53;8.13;;;5.63;;
59830;SDS011;45711;50.108;13.712;2022-09-13T03:45:26;7.30;;;5.07;;
59830;SDS011;45711;50.108;13.712;2022-09-13T03:47:56;7.78;;;5.18;;
59830;SDS011;45711;50.108;13.712;2022-09-13T03:50:23;8.23;;;5.03;;
59830;SDS011;45711;50.108;13.712;2022-09-13T03:52:51;7.03;;;4.65;;
59830;SDS011;45711;50.108;13.712;2022-09-13T03:55:22;7.00;;;5.03;;
59830;SDS011;45711;50.108;13.712;2022-09-13T03:57:49;8.38;;;5.50;;
59830;SDS011;45711;50.108;13.712;2022-09-13T04:00:15;6.65;;;4.70;;
59830;SDS011;45711;50.108;13.712;2022-09-13T04:02:42;14.38;;;4.97;;
59830;SDS011;45711;50.108;13.712;2022-09-13T04:05:09;8.95;;;5.65;;
59830;SDS011;45711;50.108;13.712;2022-09-13T04:07:36;11.13;;;4.95;;
59830;SDS011;45711;50.108;13.712;2022-09-13T04:10:02;10.13;;;4.88;;
59830;SDS011;45711;50.108;13.712;2022-09-13T04:12:27;10.65;;;5.70;;
59830;SDS011;45711;50.108;13.712;2022-09-13T04:14:55;13.43;;;6.38;;
59830;SDS011;45711;50.108;13.712;2022-09-13T04:17:20;12.63;;;6.05;;
59830;SDS011;45711;50.108;13.712;2022-09-13T04:19:46;7.15;;;5.07;;
59830;SDS011;45711;50.108;13.712;2022-09-13T04:22:13;8.75;;;5.13;;
59830;SDS011;45711;50.108;13.712;2022-09-13T04:24:39;9.65;;;5.53;;
59830;SDS011;45711;50.108;13.712;2022-09-13T04:27:07;7.03;;;5.15;;
59830;SDS011;45711;50.108;13.712;2022-09-13T04:29:32;8.18;;;5.35;;
59830;SDS011;45711;50.108;13.712;2022-09-13T04:31:58;7.03;;;5.03;;
59830;SDS011;45711;50.108;13.712;2022-09-13T04:34:27;8.77;;;5.10;;
59830;SDS011;45711;50.108;13.712;2022-09-13T04:36:52;6.85;;;5.32;;
59830;SDS011;45711;50.108;13.712;2022-09-13T04:39:20;7.85;;;5.43;;
59830;SDS011;45711;50.108;13.712;2022-09-13T04:41:46;9.88;;;5.10;;
59830;SDS011;45711;50.108;13.712;2022-09-13T04:44:13;12.57;;;5.45;;
59830;SDS011;45711;50.108;13.712;2022-09-13T04:46:40;10.80;;;5.45;;
59830;SDS011;45711;50.108;13.712;2022-09-13T04:49:05;10.13;;;6.10;;
59830;SDS011;45711;50.108;13.712;2022-09-13T04:51:31;7.07;;;5.18;;
59830;SDS011;45711;50.108;13.712;2022-09-13T04:53:57;14.93;;;6.03;;
59830;SDS011;45711;50.108;13.712;2022-09-13T04:56:25;16.90;;;6.55;;
59830;SDS011;45711;50.108;13.712;2022-09-13T04:58:51;10.90;;;5.57;;
59830;SDS011;45711;50.108;13.712;2022-09-13T05:01:17;17.42;;;5.90;;
59830;SDS011;45711;50.108;13.712;2022-09-13T05:03:43;9.82;;;5.88;;
59830;SDS011;45711;50.108;13.712;2022-09-13T05:06:10;10.73;;;6.45;;
59830;SDS011;45711;50.108;13.712;2022-09-13T05:08:36;11.95;;;6.03;;
59830;SDS011;45711;50.108;13.712;2022-09-13T05:11:02;8.07;;;5.75;;
59830;SDS011;45711;50.108;13.712;2022-09-13T05:13:33;17.67;;;5.88;;
59830;SDS011;45711;50.108;13.712;2022-09-13T05:15:59;15.57;;;5.75;;
59830;SDS011;45711;50.108;13.712;2022-09-13T05:18:27;12.90;;;5.43;;
59830;SDS011;45711;50.108;13.712;2022-09-13T05:20:53;21.30;;;9.52;;
59830;SDS011;45711;50.108;13.712;2022-09-13T05:23:19;29.58;;;7.30;;
59830;SDS011;45711;50.108;13.712;2022-09-13T05:25:45;15.50;;;6.13;;
59830;SDS011;45711;50.108;13.712;2022-09-13T05:28:17;10.68;;;6.18;;
59830;SDS011;45711;50.108;13.712;2022-09-13T05:30:43;10.63;;;5.88;;
59830;SDS011;45711;50.108;13.712;2022-09-13T05:33:09;9.60;;;5.85;;
59830;SDS011;45711;50.108;13.712;2022-09-13T05:35:38;11.30;;;5.80;;
59830;SDS011;45711;50.108;13.712;2022-09-13T05:38:04;16.35;;;6.20;;
59830;SDS011;45711;50.108;13.712;2022-09-13T05:40:30;23.48;;;6.72;;
59830;SDS011;45711;50.108;13.712;2022-09-13T05:42:56;11.60;;;6.13;;
59830;SDS011;45711;50.108;13.712;2022-09-13T05:45:21;15.60;;;5.97;;
59830;SDS011;45711;50.108;13.712;2022-09-13T05:47:50;10.93;;;5.95;;
59830;SDS011;45711;50.108;13.712;2022-09-13T05:50:15;9.35;;;5.82;;
59830;SDS011;45711;50.108;13.712;2022-09-13T05:52:41;13.02;;;6.70;;
59830;SDS011;45711;50.108;13.712;2022-09-13T05:55:07;10.45;;;6.20;;
59830;SDS011;45711;50.108;13.712;2022-09-13T05:57:34;11.85;;;6.00;;
59830;SDS011;45711;50.108;13.712;2022-09-13T06:00:00;12.93;;;5.47;;
59830;SDS011;45711;50.108;13.712;2022-09-13T06:02:26;15.38;;;6.30;;
59830;SDS011;45711;50.108;13.712;2022-09-13T06:04:53;7.82;;;5.75;;
59830;SDS011;45711;50.108;13.712;2022-09-13T06:07:18;23.88;;;6.30;;
59830;SDS011;45711;50.108;13.712;2022-09-13T06:09:44;12.70;;;6.22;;
59830;SDS011;45711;50.108;13.712;2022-09-13T06:12:09;9.32;;;5.57;;
59830;SDS011;45711;50.108;13.712;2022-09-13T06:14:35;12.15;;;5.57;;
59830;SDS011;45711;50.108;13.712;2022-09-13T06:17:00;14.32;;;6.20;;
59830;SDS011;45711;50.108;13.712;2022-09-13T06:19:26;14.50;;;6.80;;
59830;SDS011;45711;50.108;13.712;2022-09-13T06:21:53;11.82;;;5.95;;
59830;SDS011;45711;50.108;13.712;2022-09-13T06:24:19;10.35;;;6.00;;
59830;SDS011;45711;50.108;13.712;2022-09-13T06:26:44;8.88;;;6.00;;
59830;SDS011;45711;50.108;13.712;2022-09-13T06:29:10;11.57;;;6.20;;
59830;SDS011;45711;50.108;13.712;2022-09-13T06:31:36;11.27;;;5.90;;
59830;SDS011;45711;50.108;13.712;2022-09-13T06:34:04;10.02;;;5.90;;
59830;SDS011;45711;50.108;13.712;2022-09-13T06:36:29;13.90;;;5.85;;
59830;SDS011;45711;50.108;13.712;2022-09-13T06:38:56;14.48;;;6.13;;
59830;SDS011;45711;50.108;13.712;2022-09-13T06:41:24;10.20;;;6.47;;
59830;SDS011;45711;50.108;13.712;2022-09-13T06:43:51;14.55;;;6.00;;
59830;SDS011;45711;50.108;13.712;2022-09-13T06:46:18;9.32;;;6.00;;
59830;SDS011;45711;50.108;13.712;2022-09-13T06:48:45;8.85;;;5.78;;
59830;SDS011;45711;50.108;13.712;2022-09-13T06:51:11;13.80;;;5.78;;
59830;SDS011;45711;50.108;13.712;2022-09-13T06:53:38;12.57;;;5.68;;
59830;SDS011;45711;50.108;13.712;2022-09-13T06:56:07;11.30;;;5.93;;
59830;SDS011;45711;50.108;13.712;2022-09-13T06:58:35;8.60;;;5.95;;
59830;SDS011;45711;50.108;13.712;2022-09-13T07:01:05;8.95;;;6.18;;
59830;SDS011;45711;50.108;13.712;2022-09-13T07:03:36;8.25;;;5.60;;
59830;SDS011;45711;50.108;13.712;2022-09-13T07:06:12;10.25;;;6.18;;
59830;SDS011;45711;50.108;13.712;2022-09-13T07:08:40;12.00;;;6.68;;
59830;SDS011;45711;50.108;13.712;2022-09-13T07:11:09;10.40;;;6.30;;
59830;SDS011;45711;50.108;13.712;2022-09-13T07:13:36;15.07;;;7.72;;
59830;SDS011;45711;50.108;13.712;2022-09-13T07:16:02;14.05;;;7.05;;
59830;SDS011;45711;50.108;13.712;2022-09-13T07:18:29;16.15;;;6.68;;
59830;SDS011;45711;50.108;13.712;2022-09-13T07:20:57;15.55;;;7.70;;
59830;SDS011;45711;50.108;13.712;2022-09-13T07:23:25;12.30;;;7.85;;
59830;SDS011;45711;50.108;13.712;2022-09-13T07:25:52;7.65;;;5.35;;
59830;SDS011;45711;50.108;13.712;2022-09-13T07:28:20;14.75;;;6.63;;
59830;SDS011;45711;50.108;13.712;2022-09-13T07:30:46;14.07;;;7.88;;
59830;SDS011;45711;50.108;13.712;2022-09-13T07:33:11;64.55;;;8.95;;
59830;SDS011;45711;50.108;13.712;2022-09-13T07:35:37;10.63;;;6.13;;
59830;SDS011;45711;50.108;13.712;2022-09-13T07:38:02;9.00;;;6.25;;
59830;SDS011;45711;50.108;13.712;2022-09-13T07:40:28;10.57;;;4.05;;
59830;SDS011;45711;50.108;13.712;2022-09-13T07:42:53;11.02;;;6.72;;
59830;SDS011;45711;50.108;13.712;2022-09-13T07:45:20;15.05;;;6.45;;
59830;SDS011;45711;50.108;13.712;2022-09-13T07:47:47;10.77;;;6.22;;
59830;SDS011;45711;50.108;13.712;2022-09-13T07:50:17;9.13;;;5.47;;
59830;SDS011;45711;50.108;13.712;2022-09-13T07:52:43;8.57;;;4.68;;
59830;SDS011;45711;50.108;13.712;2022-09-13T07:55:08;6.38;;;4.55;;
59830;SDS011;45711;50.108;13.712;2022-09-13T07:57:34;6.65;;;4.32;;
59830;SDS011;45711;50.108;13.712;2022-09-13T07:59:59;5.10;;;4.00;;
59830;SDS011;45711;50.108;13.712;2022-09-13T08:02:27;4.95;;;3.60;;
59830;SDS011;45711;50.108;13.712;2022-09-13T08:04:53;7.38;;;4.60;;
59830;SDS011;45711;50.108;13.712;2022-09-13T08:07:18;8.02;;;4.32;;
59830;SDS011;45711;50.108;13.712;2022-09-13T08:09:44;4.43;;;3.70;;
59830;SDS011;45711;50.108;13.712;2022-09-13T08:12:09;5.13;;;4.05;;
59830;SDS011;45711;50.108;13.712;2022-09-13T08:14:35;11.05;;;5.00;;
59830;SDS011;45711;50.108;13.712;2022-09-13T08:17:00;7.22;;;4.72;;
59830;SDS011;45711;50.108;13.712;2022-09-13T08:19:27;5.97;;;4.97;;
59830;SDS011;45711;50.108;13.712;2022-09-13T08:21:53;7.65;;;4.55;;
59830;SDS011;45711;50.108;13.712;2022-09-13T08:24:19;12.27;;;4.75;;
59830;SDS011;45711;50.108;13.712;2022-09-13T08:26:46;6.60;;;5.10;;
59830;SDS011;45711;50.108;13.712;2022-09-13T08:29:12;7.90;;;4.93;;
59830;SDS011;45711;50.108;13.712;2022-09-13T08:31:39;11.40;;;5.90;;
59830;SDS011;45711;50.108;13.712;2022-09-13T08:34:05;10.50;;;3.97;;
59830;SDS011;45711;50.108;13.712;2022-09-13T08:36:35;9.05;;;5.60;;
59830;SDS011;45711;50.108;13.712;2022-09-13T08:39:01;6.53;;;4.95;;
59830;SDS011;45711;50.108;13.712;2022-09-13T08:41:31;9.55;;;5.40;;
59830;SDS011;45711;50.108;13.712;2022-09-13T08:44:12;4.97;;;3.80;;
59830;SDS011;45711;50.108;13.712;2022-09-13T08:46:43;5.55;;;4.97;;
59830;SDS011;45711;50.108;13.712;2022-09-13T08:49:11;7.25;;;3.58;;
59830;SDS011;45711;50.108;13.712;2022-09-13T08:51:45;5.10;;;3.55;;
59830;SDS011;45711;50.108;13.712;2022-09-13T08:54:13;12.90;;;5.05;;
59830;SDS011;45711;50.108;13.712;2022-09-13T08:56:42;4.80;;;3.17;;
59830;SDS011;45711;50.108;13.712;2022-09-13T09:02:00;8.93;;;4.57;;
59830;SDS011;45711;50.108;13.712;2022-09-13T09:04:38;4.53;;;3.80;;
59830;SDS011;45711;50.108;13.712;2022-09-13T09:07:12;8.48;;;4.13;;
59830;SDS011;45711;50.108;13.712;2022-09-13T09:09:43;5.57;;;3.00;;
59830;SDS011;45711;50.108;13.712;2022-09-13T09:12:15;8.50;;;3.53;;
59830;SDS011;45711;50.108;13.712;2022-09-13T09:14:50;6.65;;;3.25;;
59830;SDS011;45711;50.108;13.712;2022-09-13T09:17:23;4.35;;;3.38;;
59830;SDS011;45711;50.108;13.712;2022-09-13T09:19:55;6.40;;;4.25;;
59830;SDS011;45711;50.108;13.712;2022-09-13T09:24:57;8.30;;;4.32;;
59830;SDS011;45711;50.108;13.712;2022-09-13T09:27:22;8.10;;;4.18;;
59830;SDS011;45711;50.108;13.712;2022-09-13T09:29:49;7.03;;;3.67;;
59830;SDS011;45711;50.108;13.712;2022-09-13T09:32:22;4.50;;;3.53;;
59830;SDS011;45711;50.108;13.712;2022-09-13T09:35:08;6.22;;;3.40;;
59830;SDS011;45711;50.108;13.712;2022-09-13T09:37:42;7.78;;;3.90;;
59830;SDS011;45711;50.108;13.712;2022-09-13T09:40:16;5.38;;;3.10;;
59830;SDS011;45711;50.108;13.712;2022-09-13T09:42:43;5.07;;;3.65;;
59830;SDS011;45711;50.108;13.712;2022-09-13T09:45:17;4.47;;;3.40;;
59830;SDS011;45711;50.108;13.712;2022-09-13T09:47:50;6.15;;;3.78;;
59830;SDS011;45711;50.108;13.712;2022-09-13T09:50:17;7.75;;;3.28;;
59830;SDS011;45711;50.108;13.712;2022-09-13T09:52:49;4.13;;;3.03;;
59830;SDS011;45711;50.108;13.712;2022-09-13T09:55:24;5.85;;;3.10;;
59830;SDS011;45711;50.108;13.712;2022-09-13T09:57:53;3.95;;;3.42;;
59830;SDS011;45711;50.108;13.712;2022-09-13T10:00:21;6.80;;;3.58;;
59830;SDS011;45711;50.108;13.712;2022-09-13T10:02:50;4.38;;;3.70;;
59830;SDS011;45711;50.108;13.712;2022-09-13T10:05:18;5.72;;;3.70;;
59830;SDS011;45711;50.108;13.712;2022-09-13T10:07:58;7.63;;;3.70;;
59830;SDS011;45711;50.108;13.712;2022-09-13T10:10:27;4.93;;;4.03;;
59830;SDS011;45711;50.108;13.712;2022-09-13T10:13:00;7.22;;;4.40;;
59830;SDS011;45711;50.108;13.712;2022-09-13T10:15:28;15.98;;;5.03;;
59830;SDS011;45711;50.108;13.712;2022-09-13T10:18:02;8.93;;;4.55;;
59830;SDS011;45711;50.108;13.712;2022-09-13T10:20:31;6.10;;;3.95;;
59830;SDS011;45711;50.108;13.712;2022-09-13T10:23:10;6.30;;;4.82;;
59830;SDS011;45711;50.108;13.712;2022-09-13T10:25:41;6.07;;;4.20;;
59830;SDS011;45711;50.108;13.712;2022-09-13T10:28:10;4.38;;;3.38;;
59830;SDS011;45711;50.108;13.712;2022-09-13T10:30:40;11.75;;;4.53;;
59830;SDS011;45711;50.108;13.712;2022-09-13T10:33:13;7.40;;;4.43;;
59830;SDS011;45711;50.108;13.712;2022-09-13T10:35:51;6.40;;;3.70;;
59830;SDS011;45711;50.108;13.712;2022-09-13T10:38:22;5.70;;;3.30;;
59830;SDS011;45711;50.108;13.712;2022-09-13T10:40:51;8.10;;;3.63;;
59830;SDS011;45711;50.108;13.712;2022-09-13T10:43:16;5.65;;;3.53;;
59830;SDS011;45711;50.108;13.712;2022-09-13T10:45:44;4.72;;;3.33;;
59830;SDS011;45711;50.108;13.712;2022-09-13T10:48:14;9.63;;;3.53;;
59830;SDS011;45711;50.108;13.712;2022-09-13T10:50:43;4.90;;;3.47;;
59830;SDS011;45711;50.108;13.712;2022-09-13T10:53:30;8.77;;;3.22;;
59830;SDS011;45711;50.108;13.712;2022-09-13T10:55:58;3.57;;;3.23;;
59830;SDS011;45711;50.108;13.712;2022-09-13T10:58:24;4.85;;;3.00;;
59830;SDS011;45711;50.108;13.712;2022-09-13T11:04:09;5.20;;;3.20;;
59830;SDS011;45711;50.108;13.712;2022-09-13T11:06:53;6.72;;;3.13;;
59830;SDS011;45711;50.108;13.712;2022-09-13T11:09:30;4.05;;;2.90;;
59830;SDS011;45711;50.108;13.712;2022-09-13T11:12:01;9.10;;;3.03;;
59830;SDS011;45711;50.108;13.712;2022-09-13T11:14:42;8.73;;;3.47;;
59830;SDS011;45711;50.108;13.712;2022-09-13T11:17:19;4.30;;;3.40;;
59830;SDS011;45711;50.108;13.712;2022-09-13T11:25:43;4.70;;;2.90;;
59830;SDS011;45711;50.108;13.712;2022-09-13T11:28:24;4.57;;;2.97;;
59830;SDS011;45711;50.108;13.712;2022-09-13T11:30:59;4.40;;;3.03;;
59830;SDS011;45711;50.108;13.712;2022-09-13T11:33:36;5.32;;;2.67;;
59830;SDS011;45711;50.108;13.712;2022-09-13T11:36:17;4.53;;;2.83;;
59830;SDS011;45711;50.108;13.712;2022-09-13T11:39:06;4.43;;;3.22;;
59830;SDS011;45711;50.108;13.712;2022-09-13T11:41:43;5.70;;;2.95;;
59830;SDS011;45711;50.108;13.712;2022-09-13T11:44:23;3.72;;;2.90;;
59830;SDS011;45711;50.108;13.712;2022-09-13T11:47:07;3.95;;;2.72;;
59830;SDS011;45711;50.108;13.712;2022-09-13T11:49:51;7.35;;;2.63;;
59830;SDS011;45711;50.108;13.712;2022-09-13T11:52:30;4.88;;;3.00;;
59830;SDS011;45711;50.108;13.712;2022-09-13T11:55:10;4.80;;;2.78;;
59830;SDS011;45711;50.108;13.712;2022-09-13T11:57:42;5.05;;;3.00;;
59830;SDS011;45711;50.108;13.712;2022-09-13T12:00:14;4.00;;;2.53;;
59830;SDS011;45711;50.108;13.712;2022-09-13T12:02:46;3.80;;;2.80;;
59830;SDS011;45711;50.108;13.712;2022-09-13T12:05:20;3.28;;;2.63;;
59830;SDS011;45711;50.108;13.712;2022-09-13T12:07:48;7.15;;;2.60;;
59830;SDS011;45711;50.108;13.712;2022-09-13T12:10:17;6.03;;;2.70;;
59830;SDS011;45711;50.108;13.712;2022-09-13T12:12:50;4.05;;;2.70;;
59830;SDS011;45711;50.108;13.712;2022-09-13T12:15:22;3.13;;;2.63;;
59830;SDS011;45711;50.108;13.712;2022-09-13T12:17:55;4.10;;;2.97;;
59830;SDS011;45711;50.108;13.712;2022-09-13T12:20:32;3.40;;;2.50;;
59830;SDS011;45711;50.108;13.712;2022-09-13T12:23:02;5.90;;;2.95;;
59830;SDS011;45711;50.108;13.712;2022-09-13T12:25:35;3.15;;;2.67;;
59830;SDS011;45711;50.108;13.712;2022-09-13T12:28:05;4.05;;;2.80;;
59830;SDS011;45711;50.108;13.712;2022-09-13T12:30:41;13.85;;;3.55;;
59830;SDS011;45711;50.108;13.712;2022-09-13T12:33:12;5.18;;;2.80;;
59830;SDS011;45711;50.108;13.712;2022-09-13T12:35:42;4.78;;;2.85;;
59830;SDS011;45711;50.108;13.712;2022-09-13T12:38:18;4.60;;;2.90;;
59830;SDS011;45711;50.108;13.712;2022-09-13T12:41:03;7.28;;;3.55;;
59830;SDS011;45711;50.108;13.712;2022-09-13T12:47:13;5.32;;;3.45;;
59830;SDS011;45711;50.108;13.712;2022-09-13T12:50:09;5.32;;;2.70;;
59830;SDS011;45711;50.108;13.712;2022-09-13T12:52:52;2.95;;;2.65;;
59830;SDS011;45711;50.108;13.712;2022-09-13T12:58:16;5.45;;;2.60;;
59830;SDS011;45711;50.108;13.712;2022-09-13T13:04:20;4.68;;;2.50;;
59830;SDS011;45711;50.108;13.712;2022-09-13T13:06:50;3.78;;;3.03;;
59830;SDS011;45711;50.108;13.712;2022-09-13T13:09:24;6.07;;;3.03;;
59830;SDS011;45711;50.108;13.712;2022-09-13T13:11:55;6.38;;;3.13;;
59830;SDS011;45711;50.108;13.712;2022-09-13T13:23:19;6.95;;;2.83;;
59830;SDS011;45711;50.108;13.712;2022-09-13T13:26:02;4.78;;;3.38;;
59830;SDS011;45711;50.108;13.712;2022-09-13T13:31:40;5.78;;;2.83;;
59830;SDS011;45711;50.108;13.712;2022-09-13T13:34:38;5.10;;;3.05;;
59830;SDS011;45711;50.108;13.712;2022-09-13T13:40:12;3.72;;;2.92;;
59830;SDS011;45711;50.108;13.712;2022-09-13T13:42:47;4.70;;;3.03;;
59830;SDS011;45711;50.108;13.712;2022-09-13T13:45:18;3.55;;;2.90;;
59830;SDS011;45711;50.108;13.712;2022-09-13T13:47:53;4.60;;;2.95;;
59830;SDS011;45711;50.108;13.712;2022-09-13T13:50:31;3.70;;;2.58;;
59830;SDS011;45711;50.108;13.712;2022-09-13T13:52:58;3.10;;;2.80;;
59830;SDS011;45711;50.108;13.712;2022-09-13T13:55:39;5.63;;;2.50;;
59830;SDS011;45711;50.108;13.712;2022-09-13T14:00:51;2.70;;;2.17;;
59830;SDS011;45711;50.108;13.712;2022-09-13T14:03:21;3.40;;;2.97;;
59830;SDS011;45711;50.108;13.712;2022-09-13T14:05:53;4.10;;;2.50;;
59830;SDS011;45711;50.108;13.712;2022-09-13T14:08:28;4.63;;;2.40;;
59830;SDS011;45711;50.108;13.712;2022-09-13T14:11:02;3.42;;;2.63;;
59830;SDS011;45711;50.108;13.712;2022-09-13T14:13:45;3.60;;;2.25;;
59830;SDS011;45711;50.108;13.712;2022-09-13T14:16:24;2.45;;;1.65;;
59830;SDS011;45711;50.108;13.712;2022-09-13T14:19:14;6.30;;;2.13;;
59830;SDS011;45711;50.108;13.712;2022-09-13T14:21:46;3.55;;;1.75;;
59830;SDS011;45711;50.108;13.712;2022-09-13T14:24:33;2.75;;;2.03;;
59830;SDS011;45711;50.108;13.712;2022-09-13T14:27:01;2.20;;;2.00;;
59830;SDS011;45711;50.108;13.712;2022-09-13T14:29:27;3.67;;;2.00;;
59830;SDS011;45711;50.108;13.712;2022-09-13T14:31:54;2.55;;;1.90;;
59830;SDS011;45711;50.108;13.712;2022-09-13T14:34:29;2.83;;;2.10;;
59830;SDS011;45711;50.108;13.712;2022-09-13T14:36:57;3.22;;;1.90;;
59830;SDS011;45711;50.108;13.712;2022-09-13T14:39:26;2.70;;;2.10;;
59830;SDS011;45711;50.108;13.712;2022-09-13T14:42:00;2.20;;;1.90;;
59830;SDS011;45711;50.108;13.712;2022-09-13T14:44:35;2.88;;;2.05;;
59830;SDS011;45711;50.108;13.712;2022-09-13T14:47:02;2.10;;;1.90;;
59830;SDS011;45711;50.108;13.712;2022-09-13T14:49:32;3.90;;;1.90;;
59830;SDS011;45711;50.108;13.712;2022-09-13T14:52:04;2.33;;;1.60;;
59830;SDS011;45711;50.108;13.712;2022-09-13T14:54:35;2.72;;;2.00;;
59830;SDS011;45711;50.108;13.712;2022-09-13T14:57:08;4.03;;;1.75;;
59830;SDS011;45711;50.108;13.712;2022-09-13T14:59:45;3.67;;;2.25;;
59830;SDS011;45711;50.108;13.712;2022-09-13T15:02:16;3.22;;;1.98;;
59830;SDS011;45711;50.108;13.712;2022-09-13T15:04:49;4.15;;;1.90;;
59830;SDS011;45711;50.108;13.712;2022-09-13T15:07:19;2.25;;;2.05;;
59830;SDS011;45711;50.108;13.712;2022-09-13T15:09:47;4.10;;;2.05;;
59830;SDS011;45711;50.108;13.712;2022-09-13T15:12:21;4.55;;;1.75;;
59830;SDS011;45711;50.108;13.712;2022-09-13T15:17:52;3.00;;;1.50;;
59830;SDS011;45711;50.108;13.712;2022-09-13T15:20:19;18.50;;;2.35;;
59830;SDS011;45711;50.108;13.712;2022-09-13T15:22:46;1.98;;;1.70;;
59830;SDS011;45711;50.108;13.712;2022-09-13T15:25:16;5.32;;;1.92;;
59830;SDS011;45711;50.108;13.712;2022-09-13T15:27:47;9.63;;;1.70;;
59830;SDS011;45711;50.108;13.712;2022-09-13T15:30:21;5.85;;;1.80;;
59830;SDS011;45711;50.108;13.712;2022-09-13T15:32:48;1.98;;;1.70;;
59830;SDS011;45711;50.108;13.712;2022-09-13T15:35:15;1.92;;;1.73;;
59830;SDS011;45711;50.108;13.712;2022-09-13T15:37:44;3.33;;;1.95;;